createdAt,value
2023-02-27T00:01:41.444Z,79.77
2023-02-27T00:04:08.187Z,79.59
2023-02-27T00:06:34.771Z,80.08
2023-02-27T00:09:01.410Z,80.63
2023-02-27T00:11:28.446Z,79.92
2023-02-27T00:13:55.332Z,80.00
2023-02-27T00:16:22.118Z,79.28
2023-02-27T00:18:48.716Z,79.53
2023-02-27T00:21:15.337Z,79.70
2023-02-27T00:23:41.935Z,79.75
2023-02-27T00:26:08.531Z,78.89
2023-02-27T00:28:35.165Z,79.00
2023-02-27T00:31:01.962Z,79.47
2023-02-27T00:33:28.593Z,79.11
2023-02-27T00:35:58.115Z,79.32
2023-02-27T00:38:24.938Z,79.29
2023-02-27T00:40:51.541Z,79.83
2023-02-27T00:43:18.154Z,79.70
2023-02-27T00:45:44.725Z,79.93
2023-02-27T00:48:11.430Z,79.44
2023-02-27T00:50:38.292Z,79.55
2023-02-27T00:53:05.181Z,78.97
2023-02-27T00:55:31.964Z,80.08
2023-02-27T00:57:58.583Z,80.12
2023-02-27T01:00:25.392Z,79.85
2023-02-27T01:02:52.262Z,78.39
2023-02-27T01:05:19.214Z,78.24
2023-02-27T01:07:45.810Z,77.31
2023-02-27T01:10:12.926Z,76.82
2023-02-27T01:12:40.315Z,77.35
2023-02-27T01:15:08.314Z,76.90
2023-02-27T01:17:34.913Z,76.53
2023-02-27T01:20:01.542Z,76.10
2023-02-27T01:22:28.130Z,75.30
2023-02-27T01:24:54.837Z,75.92
2023-02-27T01:27:21.443Z,75.50
2023-02-27T01:29:48.005Z,76.15
2023-02-27T01:32:14.667Z,75.52
2023-02-27T01:34:41.417Z,76.18
2023-02-27T01:37:08.122Z,76.11
2023-02-27T01:39:34.780Z,76.56
2023-02-27T01:42:01.451Z,76.46
2023-02-27T01:44:30.468Z,77.42
2023-02-27T01:46:57.396Z,77.41
2023-02-27T01:49:29.488Z,77.74
2023-02-27T01:52:03.262Z,78.16
2023-02-27T01:54:32.435Z,77.02
2023-02-27T01:56:59.298Z,77.61
2023-02-27T01:59:25.930Z,77.21
2023-02-27T02:01:52.945Z,76.81
2023-02-27T02:04:27.054Z,76.51
2023-02-27T02:07:00.540Z,78.07
2023-02-27T02:09:28.932Z,77.93
2023-02-27T02:11:57.800Z,78.46
2023-02-27T02:14:24.412Z,78.57
2023-02-27T02:16:51.583Z,78.62
2023-02-27T02:19:53.157Z,78.49
2023-02-27T02:22:35.057Z,78.30
2023-02-27T02:25:24.536Z,78.40
2023-02-27T02:28:06.463Z,78.09
2023-02-27T02:30:34.132Z,78.31
2023-02-27T02:33:17.018Z,78.67
2023-02-27T02:36:20.902Z,78.43
2023-02-27T02:39:12.243Z,79.38
2023-02-27T02:41:55.275Z,79.02
2023-02-27T02:44:52.266Z,79.16
2023-02-27T02:47:19.892Z,79.15
2023-02-27T02:49:58.037Z,78.25
2023-02-27T02:52:51.966Z,79.21
2023-02-27T02:55:34.931Z,78.54
2023-02-27T02:58:12.656Z,78.89
2023-02-27T03:00:46.732Z,78.53
2023-02-27T03:03:21.611Z,79.15
2023-02-27T03:05:55.766Z,78.31
2023-02-27T03:08:28.809Z,77.80
2023-02-27T03:10:57.901Z,77.64
2023-02-27T03:13:29.391Z,77.30
2023-02-27T03:16:07.929Z,78.34
2023-02-27T03:18:41.326Z,78.08
2023-02-27T03:21:13.632Z,77.69
2023-02-27T03:23:45.639Z,77.73
2023-02-27T03:26:17.397Z,76.89
2023-02-27T03:28:56.068Z,77.00
2023-02-27T03:31:31.751Z,77.46
2023-02-27T03:34:05.676Z,77.39
2023-02-27T03:36:46.112Z,77.68
2023-02-27T03:39:37.804Z,77.21
2023-02-27T03:42:26.526Z,77.28
2023-02-27T03:44:53.142Z,76.78
2023-02-27T03:47:20.188Z,77.79
2023-02-27T03:49:47.057Z,77.50
2023-02-27T03:52:13.744Z,77.13
2023-02-27T03:55:00.976Z,77.06
2023-02-27T03:57:28.415Z,77.54
2023-02-27T03:59:55.414Z,77.62
2023-02-27T04:02:23.124Z,78.16
2023-02-27T04:04:49.858Z,77.95
2023-02-27T04:07:32.076Z,78.12
2023-02-27T04:10:13.862Z,78.11
2023-02-27T04:12:56.742Z,78.22
2023-02-27T04:15:42.758Z,78.55
2023-02-27T04:18:24.692Z,77.80
2023-02-27T04:20:58.871Z,78.05
2023-02-27T04:23:39.992Z,77.98
2023-02-27T04:26:22.083Z,77.64
2023-02-27T04:29:03.565Z,77.27
2023-02-27T04:31:30.474Z,78.06
2023-02-27T04:34:05.839Z,78.43
2023-02-27T04:36:52.109Z,78.73
2023-02-27T04:39:24.598Z,78.81
2023-02-27T04:41:57.584Z,78.94
2023-02-27T04:44:26.141Z,79.31
2023-02-27T04:46:56.103Z,79.55
2023-02-27T04:49:29.348Z,79.63
2023-02-27T04:52:10.457Z,78.69
2023-02-27T04:54:52.518Z,77.92
2023-02-27T04:57:27.521Z,78.87
2023-02-27T04:59:55.693Z,78.31
2023-02-27T05:02:28.180Z,78.10
2023-02-27T05:05:00.001Z,78.43
2023-02-27T05:07:39.398Z,77.94
2023-02-27T05:10:12.599Z,77.27
2023-02-27T05:12:47.580Z,77.61
2023-02-27T05:15:24.443Z,77.72
2023-02-27T05:18:08.479Z,77.91
2023-02-27T05:20:50.565Z,77.80
2023-02-27T05:23:29.162Z,77.27
2023-02-27T05:26:01.448Z,76.78
2023-02-27T05:28:34.953Z,76.68
2023-02-27T05:31:09.916Z,76.73
2023-02-27T05:33:43.419Z,76.30
2023-02-27T05:36:22.100Z,75.71
2023-02-27T05:38:53.204Z,76.12
2023-02-27T05:41:27.630Z,76.03
2023-02-27T05:44:01.356Z,74.80
2023-02-27T05:46:33.239Z,74.56
2023-02-27T05:49:05.617Z,73.98
2023-02-27T05:51:36.768Z,73.05
2023-02-27T05:54:10.111Z,73.07
2023-02-27T05:56:38.479Z,73.28
2023-02-27T05:59:15.243Z,73.07
2023-02-27T06:01:41.986Z,72.38
2023-02-27T06:04:08.680Z,71.32
2023-02-27T06:06:37.180Z,72.44
2023-02-27T06:09:03.908Z,71.32
2023-02-27T06:11:30.484Z,71.96
2023-02-27T06:13:57.032Z,70.49
2023-02-27T06:16:23.686Z,71.27
2023-02-27T06:18:50.332Z,70.90
2023-02-27T06:21:16.942Z,70.39
2023-02-27T06:23:43.537Z,70.52
2023-02-27T06:26:14.388Z,70.27
2023-02-27T06:28:42.309Z,70.15
2023-02-27T06:31:08.971Z,70.13
2023-02-27T06:33:35.627Z,70.62
2023-02-27T06:36:02.269Z,70.28
2023-02-27T06:38:28.834Z,70.80
2023-02-27T06:40:58.984Z,70.27
2023-02-27T06:43:25.782Z,70.21
2023-02-27T06:45:54.691Z,70.30
2023-02-27T06:48:21.344Z,69.22
2023-02-27T06:50:53.662Z,70.45
2023-02-27T06:53:20.643Z,70.03
2023-02-27T06:55:47.249Z,70.73
2023-02-27T06:58:14.283Z,70.75
2023-02-27T07:00:40.917Z,70.74
2023-02-27T07:03:07.546Z,69.93
2023-02-27T07:05:34.153Z,69.89
2023-02-27T07:08:01.051Z,70.07
2023-02-27T07:10:27.643Z,70.48
2023-02-27T07:12:55.175Z,70.44
2023-02-27T07:15:22.547Z,70.87
2023-02-27T07:17:49.151Z,70.29
2023-02-27T07:20:15.782Z,69.14
2023-02-27T07:22:42.697Z,68.71
2023-02-27T07:25:10.417Z,69.35
2023-02-27T07:27:37.035Z,70.52
2023-02-27T07:30:07.641Z,69.49
2023-02-27T07:32:34.234Z,69.57
2023-02-27T07:35:00.808Z,69.56
2023-02-27T07:37:28.229Z,69.55
2023-02-27T07:39:54.871Z,69.46
2023-02-27T07:42:21.702Z,69.77
2023-02-27T07:44:48.300Z,68.52
2023-02-27T07:47:14.914Z,67.96
2023-02-27T07:49:41.504Z,68.35
2023-02-27T07:52:08.343Z,68.16
2023-02-27T07:54:37.555Z,67.97
2023-02-27T07:57:05.480Z,67.89
2023-02-27T07:59:32.312Z,67.91
2023-02-27T08:01:58.876Z,67.68
2023-02-27T08:04:25.564Z,68.17
2023-02-27T08:06:52.160Z,66.79
2023-02-27T08:09:18.836Z,67.31
2023-02-27T08:11:47.257Z,68.64
2023-02-27T08:14:15.459Z,67.23
2023-02-27T08:16:42.077Z,66.97
2023-02-27T08:19:08.686Z,67.78
2023-02-27T08:21:35.270Z,67.04
2023-02-27T08:24:02.159Z,67.33
2023-02-27T08:26:29.096Z,66.56
2023-02-27T08:28:55.884Z,66.11
2023-02-27T08:31:22.565Z,65.78
2023-02-27T08:33:55.263Z,64.11
2023-02-27T08:36:24.605Z,65.35
2023-02-27T08:38:51.217Z,64.75
2023-02-27T08:41:17.851Z,63.99
2023-02-27T08:43:44.444Z,64.42
2023-02-27T08:46:11.356Z,62.19
2023-02-27T08:48:37.960Z,62.97
2023-02-27T08:51:04.614Z,63.00
2023-02-27T08:53:31.202Z,61.82
2023-02-27T08:55:57.770Z,62.72
2023-02-27T08:58:24.367Z,62.92
2023-02-27T09:00:50.978Z,61.98
2023-02-27T09:03:17.597Z,61.79
2023-02-27T09:05:44.186Z,62.70
2023-02-27T09:08:10.802Z,61.42
2023-02-27T09:10:37.474Z,62.16
2023-02-27T09:13:04.580Z,62.57
2023-02-27T09:15:32.574Z,62.17
2023-02-27T09:18:03.109Z,61.97
2023-02-27T09:20:31.727Z,58.84
2023-02-27T09:22:59.308Z,59.96
2023-02-27T09:25:26.767Z,60.47
2023-02-27T09:27:53.377Z,60.63
2023-02-27T09:30:20.411Z,60.31
2023-02-27T09:32:47.076Z,58.43
2023-02-27T09:35:15.833Z,59.68
2023-02-27T09:37:44.053Z,58.54
2023-02-27T09:40:22.780Z,59.04
2023-02-27T09:42:50.466Z,58.07
2023-02-27T09:45:23.797Z,59.45
2023-02-27T09:47:55.768Z,57.09
2023-02-27T09:50:38.535Z,57.26
2023-02-27T09:53:12.156Z,57.47
2023-02-27T09:55:41.612Z,56.96
2023-02-27T09:58:17.637Z,57.80
2023-02-27T10:00:49.044Z,57.75
2023-02-27T10:03:35.200Z,57.53
2023-02-27T10:06:32.368Z,57.14
2023-02-27T10:09:19.262Z,57.26
2023-02-27T10:11:54.090Z,56.89
2023-02-27T10:14:36.066Z,56.64
2023-02-27T10:17:06.474Z,56.62
2023-02-27T10:19:37.697Z,56.55
2023-02-27T10:22:11.405Z,55.40
2023-02-27T10:24:44.851Z,54.93
2023-02-27T10:27:19.204Z,54.82
2023-02-27T10:29:46.616Z,54.37
2023-02-27T10:32:31.796Z,55.26
2023-02-27T10:35:17.687Z,55.22
2023-02-27T10:37:50.907Z,55.87
2023-02-27T10:40:20.498Z,55.51
2023-02-27T10:42:51.142Z,54.75
2023-02-27T10:45:17.890Z,55.88
2023-02-27T10:47:45.253Z,54.19
2023-02-27T10:50:28.756Z,55.12
2023-02-27T10:52:59.873Z,57.63
2023-02-27T10:55:38.674Z,56.57
2023-02-27T10:58:06.158Z,56.45
2023-02-27T11:00:41.066Z,54.63
2023-02-27T11:03:16.914Z,54.97
2023-02-27T11:05:52.500Z,54.37
2023-02-27T11:08:24.305Z,56.05
2023-02-27T11:10:57.771Z,56.33
2023-02-27T11:13:27.879Z,56.28
2023-02-27T11:16:12.989Z,55.90
2023-02-27T11:18:43.527Z,55.86
2023-02-27T11:21:10.078Z,55.10
2023-02-27T11:23:36.901Z,55.75
2023-02-27T11:26:22.441Z,57.26
2023-02-27T11:29:08.382Z,55.97
2023-02-27T11:31:39.540Z,55.24
2023-02-27T11:34:08.267Z,57.22
2023-02-27T11:36:41.399Z,57.68
2023-02-27T11:39:22.239Z,56.74
2023-02-27T11:41:49.109Z,55.35
2023-02-27T11:44:27.393Z,55.61
2023-02-27T11:47:13.731Z,55.38
2023-02-27T11:50:06.462Z,55.30
2023-02-27T11:52:38.825Z,56.28
2023-02-27T11:55:10.343Z,57.36
2023-02-27T11:57:41.481Z,55.84
2023-02-27T12:00:21.190Z,55.69
2023-02-27T12:03:18.389Z,55.85
2023-02-27T12:05:50.432Z,56.35
2023-02-27T12:08:42.710Z,55.63
2023-02-27T12:11:28.263Z,55.21
2023-02-27T12:14:18.055Z,56.22
2023-02-27T12:16:59.035Z,55.62
2023-02-27T12:19:33.505Z,56.03
2023-02-27T12:22:10.918Z,55.41
2023-02-27T12:24:45.846Z,56.03
2023-02-27T12:27:18.496Z,55.90
2023-02-27T12:29:53.626Z,55.66
2023-02-27T12:32:42.861Z,55.42
2023-02-27T12:35:23.406Z,55.75
2023-02-27T12:37:51.096Z,55.48
2023-02-27T12:40:19.452Z,55.65
2023-02-27T12:43:11.121Z,55.57
2023-02-27T12:46:01.946Z,56.70
2023-02-27T12:48:45.170Z,56.36
2023-02-27T12:51:31.568Z,56.27
2023-02-27T12:54:15.956Z,56.10
2023-02-27T12:57:02.337Z,56.68
2023-02-27T13:00:07.867Z,56.95
2023-02-27T13:02:48.779Z,56.41
2023-02-27T13:05:45.967Z,56.85
2023-02-27T13:08:32.842Z,56.55
2023-02-27T13:11:05.177Z,56.73
2023-02-27T13:13:43.982Z,56.24
2023-02-27T13:16:26.282Z,57.56
2023-02-27T13:19:04.948Z,56.74
2023-02-27T13:21:38.332Z,57.63
2023-02-27T13:24:31.479Z,56.38
2023-02-27T13:27:16.003Z,57.75
2023-02-27T13:29:48.680Z,57.08
2023-02-27T13:32:16.401Z,57.22
2023-02-27T13:34:49.241Z,58.03
2023-02-27T13:37:16.108Z,58.38
2023-02-27T13:39:56.416Z,56.83
2023-02-27T13:42:55.540Z,58.50
2023-02-27T13:45:52.677Z,57.77
2023-02-27T13:48:34.463Z,58.75
2023-02-27T13:51:01.557Z,58.64
2023-02-27T13:53:28.788Z,58.36
2023-02-27T13:56:17.554Z,57.88
2023-02-27T13:58:45.077Z,58.13
2023-02-27T14:01:19.362Z,57.51
2023-02-27T14:03:54.497Z,58.44
2023-02-27T14:06:23.313Z,57.63
2023-02-27T14:08:57.570Z,56.96
2023-02-27T14:11:39.719Z,58.09
2023-02-27T14:14:09.121Z,57.27
2023-02-27T14:16:54.085Z,58.46
2023-02-27T14:19:22.707Z,57.86
2023-02-27T14:21:54.416Z,57.00
2023-02-27T14:24:27.301Z,57.41
2023-02-27T14:26:54.999Z,58.92
2023-02-27T14:29:25.794Z,57.71
2023-02-27T14:31:54.256Z,58.11
2023-02-27T14:34:22.168Z,57.36
2023-02-27T14:36:54.083Z,57.78
2023-02-27T14:39:32.075Z,57.49
2023-02-27T14:42:19.535Z,58.02
2023-02-27T14:44:51.613Z,58.86
2023-02-27T14:47:23.254Z,57.94
2023-02-27T14:49:49.913Z,58.95
2023-02-27T14:52:20.193Z,58.15
2023-02-27T14:54:48.482Z,58.37
2023-02-27T14:57:26.792Z,58.96
2023-02-27T14:59:54.874Z,58.92
2023-02-27T15:02:26.201Z,58.65
2023-02-27T15:05:13.639Z,57.97
2023-02-27T15:07:40.542Z,58.40
2023-02-27T15:10:10.609Z,58.68
2023-02-27T15:12:39.333Z,58.71
2023-02-27T15:15:09.059Z,58.96
2023-02-27T15:17:40.996Z,59.47
2023-02-27T15:20:24.956Z,58.56
2023-02-27T15:22:51.704Z,57.85
2023-02-27T15:25:37.484Z,58.34
2023-02-27T15:28:15.789Z,58.50
2023-02-27T15:30:42.550Z,57.14
2023-02-27T15:33:16.197Z,57.88
2023-02-27T15:35:45.291Z,57.74
2023-02-27T15:38:33.378Z,57.64
2023-02-27T15:41:01.837Z,57.73
2023-02-27T15:43:30.264Z,58.08
2023-02-27T15:45:58.362Z,58.81
2023-02-27T15:48:25.965Z,59.36
2023-02-27T15:50:57.080Z,58.92
2023-02-27T15:53:27.030Z,59.47
2023-02-27T15:56:00.852Z,59.21
2023-02-27T15:58:31.811Z,59.28
2023-02-27T16:01:01.730Z,58.67
2023-02-27T16:03:34.243Z,58.18
2023-02-27T16:06:01.314Z,59.69
2023-02-27T16:08:31.181Z,58.65
2023-02-27T16:10:58.222Z,59.72
2023-02-27T16:13:25.830Z,58.65
2023-02-27T16:16:23.061Z,59.32
2023-02-27T16:18:54.014Z,59.58
2023-02-27T16:21:23.407Z,58.35
2023-02-27T16:23:50.433Z,58.92
2023-02-27T16:26:37.054Z,58.74
2023-02-27T16:29:19.737Z,58.60
2023-02-27T16:31:49.392Z,59.05
2023-02-27T16:34:26.122Z,58.63
2023-02-27T16:36:58.691Z,59.16
2023-02-27T16:39:26.142Z,59.91
2023-02-27T16:41:55.295Z,59.45
2023-02-27T16:44:23.767Z,58.72
2023-02-27T16:46:51.758Z,58.93
2023-02-27T16:49:24.136Z,59.84
2023-02-27T16:51:51.655Z,60.15
2023-02-27T16:54:19.004Z,59.69
2023-02-27T16:56:47.186Z,59.72
2023-02-27T16:59:33.554Z,60.77
2023-02-27T17:02:02.752Z,60.41
2023-02-27T17:04:30.168Z,60.37
2023-02-27T17:06:59.298Z,60.00
2023-02-27T17:09:28.215Z,60.32
2023-02-27T17:11:55.980Z,60.11
2023-02-27T17:14:23.485Z,60.52
2023-02-27T17:16:50.342Z,60.23
2023-02-27T17:19:17.164Z,60.49
2023-02-27T17:21:43.776Z,60.01
2023-02-27T17:24:10.381Z,60.40
2023-02-27T17:26:37.019Z,61.08
2023-02-27T17:29:05.233Z,61.32
2023-02-27T17:31:32.004Z,59.62
2023-02-27T17:33:58.690Z,61.11
2023-02-27T17:36:26.236Z,60.06
2023-02-27T17:38:56.087Z,60.53
2023-02-27T17:41:22.909Z,60.95
2023-02-27T17:43:52.176Z,61.79
2023-02-27T17:46:18.854Z,60.88
2023-02-27T17:48:45.518Z,60.97
2023-02-27T17:51:14.451Z,61.02
2023-02-27T17:53:41.379Z,61.85
2023-02-27T17:56:09.217Z,61.88
2023-02-27T17:58:35.894Z,61.70
2023-02-27T18:01:06.258Z,62.31
2023-02-27T18:03:33.164Z,61.79
2023-02-27T18:06:00.252Z,61.46
2023-02-27T18:08:28.155Z,61.47
2023-02-27T18:10:55.479Z,62.05
2023-02-27T18:13:22.149Z,62.21
2023-02-27T18:15:50.035Z,62.19
2023-02-27T18:18:16.726Z,62.43
2023-02-27T18:20:43.374Z,62.02
2023-02-27T18:23:10.280Z,61.84
2023-02-27T18:25:37.379Z,61.79
2023-02-27T18:28:05.354Z,61.68
2023-02-27T18:30:36.849Z,62.37
2023-02-27T18:33:03.723Z,62.20
2023-02-27T18:35:30.382Z,61.16
2023-02-27T18:37:57.111Z,61.81
2023-02-27T18:40:25.042Z,61.69
2023-02-27T18:42:53.408Z,61.42
2023-02-27T18:45:20.290Z,61.95
2023-02-27T18:47:47.120Z,62.28
2023-02-27T18:50:13.927Z,63.27
2023-02-27T18:52:40.550Z,63.34
2023-02-27T18:55:07.653Z,63.10
2023-02-27T18:57:34.730Z,63.31
2023-02-27T19:00:01.731Z,63.50
2023-02-27T19:02:28.477Z,63.65
2023-02-27T19:04:55.125Z,63.47
2023-02-27T19:07:23.387Z,64.06
2023-02-27T19:09:50.049Z,63.48
2023-02-27T19:12:17.435Z,63.73
2023-02-27T19:14:44.111Z,63.99
2023-02-27T19:17:10.799Z,64.61
2023-02-27T19:19:40.681Z,64.55
2023-02-27T19:22:07.394Z,64.35
2023-02-27T19:24:34.011Z,65.95
2023-02-27T19:27:00.983Z,65.40
2023-02-27T19:29:27.615Z,65.93
2023-02-27T19:31:54.433Z,65.88
2023-02-27T19:34:21.195Z,65.36
2023-02-27T19:36:47.963Z,65.86
2023-02-27T19:39:14.684Z,65.44
2023-02-27T19:41:41.337Z,66.02
2023-02-27T19:44:08.478Z,66.30
2023-02-27T19:46:35.678Z,66.18
2023-02-27T19:49:05.518Z,66.47
2023-02-27T19:51:32.403Z,66.88
2023-02-27T19:53:59.099Z,67.08
2023-02-27T19:56:28.141Z,67.11
2023-02-27T19:58:55.079Z,67.79
2023-02-27T20:01:24.326Z,68.20
2023-02-27T20:03:51.104Z,67.15
2023-02-27T20:06:20.272Z,68.37
2023-02-27T20:08:47.011Z,67.57
2023-02-27T20:11:15.641Z,68.00
2023-02-27T20:13:42.229Z,67.78
2023-02-27T20:16:10.382Z,68.26
2023-02-27T20:18:39.812Z,68.47
2023-02-27T20:21:10.076Z,68.66
2023-02-27T20:23:39.809Z,68.85
2023-02-27T20:26:18.184Z,68.80
2023-02-27T20:28:45.885Z,69.33
2023-02-27T20:31:14.276Z,69.86
2023-02-27T20:33:41.818Z,69.62
2023-02-27T20:36:10.247Z,69.97
2023-02-27T20:38:39.177Z,70.08
2023-02-27T20:41:08.120Z,69.69
2023-02-27T20:43:35.232Z,70.11
2023-02-27T20:46:03.860Z,70.90
2023-02-27T20:48:30.529Z,71.11
2023-02-27T20:50:57.470Z,71.33
2023-02-27T20:53:26.242Z,71.45
2023-02-27T20:55:52.930Z,70.49
2023-02-27T20:58:19.528Z,70.98
2023-02-27T21:00:46.119Z,71.19
2023-02-27T21:03:12.773Z,71.33
2023-02-27T21:05:46.450Z,71.25
2023-02-27T21:08:13.090Z,71.75
2023-02-27T21:10:41.062Z,71.84
2023-02-27T21:13:07.765Z,71.07
2023-02-27T21:15:35.964Z,71.51
2023-02-27T21:18:02.722Z,71.56
2023-02-27T21:20:29.840Z,71.38
2023-02-27T21:22:56.544Z,72.50
2023-02-27T21:25:25.103Z,71.95
2023-02-27T21:27:51.763Z,72.71
2023-02-27T21:30:19.061Z,71.57
2023-02-27T21:32:45.762Z,71.97
2023-02-27T21:35:12.408Z,71.83
2023-02-27T21:37:46.697Z,71.94
2023-02-27T21:40:14.329Z,71.97
2023-02-27T21:42:42.209Z,71.92
2023-02-27T21:45:09.739Z,71.84
2023-02-27T21:47:36.350Z,72.12
2023-02-27T21:50:03.859Z,72.29
2023-02-27T21:52:31.616Z,71.89
2023-02-27T21:54:58.421Z,72.51
2023-02-27T21:57:25.092Z,72.22
2023-02-27T21:59:51.726Z,72.33
2023-02-27T22:02:18.391Z,72.47
2023-02-27T22:04:45.011Z,72.48
2023-02-27T22:07:11.675Z,72.75
2023-02-27T22:09:38.293Z,72.99
2023-02-27T22:12:05.298Z,73.23
2023-02-27T22:14:31.902Z,73.00
2023-02-27T22:16:58.548Z,72.65
2023-02-27T22:19:25.171Z,73.40
2023-02-27T22:21:51.864Z,72.64
2023-02-27T22:24:21.718Z,73.65
2023-02-27T22:26:49.641Z,73.21
2023-02-27T22:29:17.142Z,72.96
2023-02-27T22:31:43.811Z,73.78
2023-02-27T22:34:13.680Z,74.08
2023-02-27T22:36:41.767Z,73.71
2023-02-27T22:39:08.608Z,73.85
2023-02-27T22:41:38.350Z,74.57
2023-02-27T22:44:06.829Z,74.18
2023-02-27T22:46:36.431Z,74.33
2023-02-27T22:49:08.377Z,74.57
2023-02-27T22:51:35.499Z,74.75
2023-02-27T22:54:03.861Z,74.72
2023-02-27T22:56:31.391Z,75.39
2023-02-27T22:58:58.752Z,75.33
2023-02-27T23:01:28.887Z,74.86
2023-02-27T23:03:59.384Z,74.72
2023-02-27T23:06:29.401Z,74.76
2023-02-27T23:08:56.049Z,74.76
2023-02-27T23:11:23.502Z,74.90
2023-02-27T23:13:50.370Z,74.99
2023-02-27T23:16:17.642Z,75.22
2023-02-27T23:18:47.179Z,75.44
2023-02-27T23:21:16.927Z,75.61
2023-02-27T23:23:43.922Z,76.04
2023-02-27T23:26:10.964Z,75.30
2023-02-27T23:28:38.053Z,75.18
2023-02-27T23:31:06.468Z,75.07
2023-02-27T23:33:33.780Z,75.29
2023-02-27T23:36:04.471Z,74.81
2023-02-27T23:38:31.172Z,74.37
2023-02-27T23:40:57.894Z,74.60
2023-02-27T23:43:24.574Z,74.54
2023-02-27T23:45:51.220Z,73.74
2023-02-27T23:48:17.928Z,73.72
2023-02-27T23:50:45.050Z,73.65
2023-02-27T23:53:13.620Z,73.73
2023-02-27T23:55:41.282Z,73.99
2023-02-27T23:58:11.129Z,74.15
